sensor_id;sensor_type;location;lat;lon;timestamp;temperature;humidity
13205;DHT22;6667;52.634;9.226;2023-09-19T00:01:50;15.80;99.90
13205;DHT22;6667;52.634;9.226;2023-09-19T00:04:19;15.80;99.90
13205;DHT22;6667;52.634;9.226;2023-09-19T00:06:49;15.80;99.90
13205;DHT22;6667;52.634;9.226;2023-09-19T00:09:15;15.80;99.90
13205;DHT22;6667;52.634;9.226;2023-09-19T00:11:42;15.90;99.90
13205;DHT22;6667;52.634;9.226;2023-09-19T00:14:09;15.90;99.90
13205;DHT22;6667;52.634;9.226;2023-09-19T00:16:40;15.90;99.90
13205;DHT22;6667;52.634;9.226;2023-09-19T00:19:07;15.90;99.90
13205;DHT22;6667;52.634;9.226;2023-09-19T00:21:35;15.90;99.90
13205;DHT22;6667;52.634;9.226;2023-09-19T00:24:03;15.90;99.90
13205;DHT22;6667;52.634;9.226;2023-09-19T00:26:31;15.90;99.90
13205;DHT22;6667;52.634;9.226;2023-09-19T00:28:59;16.00;99.90
13205;DHT22;6667;52.634;9.226;2023-09-19T00:31:33;15.90;99.90
13205;DHT22;6667;52.634;9.226;2023-09-19T00:34:03;16.00;99.90
13205;DHT22;6667;52.634;9.226;2023-09-19T00:36:31;16.00;99.90
13205;DHT22;6667;52.634;9.226;2023-09-19T00:39:00;16.00;99.90
13205;DHT22;6667;52.634;9.226;2023-09-19T00:41:28;16.00;99.90
13205;DHT22;6667;52.634;9.226;2023-09-19T00:43:55;16.00;99.90
13205;DHT22;6667;52.634;9.226;2023-09-19T00:46:22;16.00;99.90
13205;DHT22;6667;52.634;9.226;2023-09-19T00:48:49;16.00;99.90
13205;DHT22;6667;52.634;9.226;2023-09-19T00:51:16;16.00;99.90
13205;DHT22;6667;52.634;9.226;2023-09-19T00:53:45;15.90;99.90
13205;DHT22;6667;52.634;9.226;2023-09-19T00:56:14;15.90;99.90
13205;DHT22;6667;52.634;9.226;2023-09-19T00:58:44;16.00;99.90
13205;DHT22;6667;52.634;9.226;2023-09-19T01:01:12;15.90;99.90
13205;DHT22;6667;52.634;9.226;2023-09-19T01:03:40;15.90;99.90
13205;DHT22;6667;52.634;9.226;2023-09-19T01:06:07;15.90;99.90
13205;DHT22;6667;52.634;9.226;2023-09-19T01:08:34;16.00;99.90
13205;DHT22;6667;52.634;9.226;2023-09-19T01:11:08;15.90;99.90
13205;DHT22;6667;52.634;9.226;2023-09-19T01:13:48;16.00;99.90
13205;DHT22;6667;52.634;9.226;2023-09-19T01:16:23;16.00;99.90
13205;DHT22;6667;52.634;9.226;2023-09-19T01:19:01;16.00;99.90
13205;DHT22;6667;52.634;9.226;2023-09-19T01:21:41;16.00;99.90
13205;DHT22;6667;52.634;9.226;2023-09-19T01:24:33;15.90;99.90
13205;DHT22;6667;52.634;9.226;2023-09-19T01:27:17;15.90;99.90
13205;DHT22;6667;52.634;9.226;2023-09-19T01:29:51;15.90;99.90
13205;DHT22;6667;52.634;9.226;2023-09-19T01:32:21;15.90;99.90
13205;DHT22;6667;52.634;9.226;2023-09-19T01:34:52;15.90;99.90
13205;DHT22;6667;52.634;9.226;2023-09-19T01:37:20;15.90;99.90
13205;DHT22;6667;52.634;9.226;2023-09-19T01:39:53;15.90;99.90
13205;DHT22;6667;52.634;9.226;2023-09-19T01:42:28;15.80;99.90
13205;DHT22;6667;52.634;9.226;2023-09-19T01:45:03;15.80;99.90
13205;DHT22;6667;52.634;9.226;2023-09-19T01:47:34;15.80;99.90
13205;DHT22;6667;52.634;9.226;2023-09-19T01:50:11;15.80;99.90
13205;DHT22;6667;52.634;9.226;2023-09-19T01:52:43;15.80;99.90
13205;DHT22;6667;52.634;9.226;2023-09-19T01:55:13;15.80;99.90
13205;DHT22;6667;52.634;9.226;2023-09-19T01:57:48;15.70;99.90
13205;DHT22;6667;52.634;9.226;2023-09-19T02:00:18;15.70;99.90
13205;DHT22;6667;52.634;9.226;2023-09-19T02:02:49;15.70;99.90
13205;DHT22;6667;52.634;9.226;2023-09-19T02:05:22;15.80;99.90
13205;DHT22;6667;52.634;9.226;2023-09-19T02:07:50;15.80;99.90
13205;DHT22;6667;52.634;9.226;2023-09-19T02:10:16;15.70;99.90
13205;DHT22;6667;52.634;9.226;2023-09-19T02:12:43;15.70;99.90
13205;DHT22;6667;52.634;9.226;2023-09-19T02:15:10;15.80;99.90
13205;DHT22;6667;52.634;9.226;2023-09-19T02:17:37;15.70;99.90
13205;DHT22;6667;52.634;9.226;2023-09-19T02:20:06;15.70;99.90
13205;DHT22;6667;52.634;9.226;2023-09-19T02:22:35;15.70;99.90
13205;DHT22;6667;52.634;9.226;2023-09-19T02:25:02;15.70;99.90
13205;DHT22;6667;52.634;9.226;2023-09-19T02:27:30;15.70;99.90
13205;DHT22;6667;52.634;9.226;2023-09-19T02:29:57;15.70;99.90
13205;DHT22;6667;52.634;9.226;2023-09-19T02:32:23;15.70;99.90
13205;DHT22;6667;52.634;9.226;2023-09-19T02:34:50;15.80;99.90
13205;DHT22;6667;52.634;9.226;2023-09-19T02:37:18;15.70;99.90
13205;DHT22;6667;52.634;9.226;2023-09-19T02:39:45;15.70;99.90
13205;DHT22;6667;52.634;9.226;2023-09-19T02:42:12;15.60;99.90
13205;DHT22;6667;52.634;9.226;2023-09-19T02:44:39;15.60;99.90
13205;DHT22;6667;52.634;9.226;2023-09-19T02:47:05;15.70;99.90
13205;DHT22;6667;52.634;9.226;2023-09-19T02:49:32;15.70;99.90
13205;DHT22;6667;52.634;9.226;2023-09-19T02:52:00;15.60;99.90
13205;DHT22;6667;52.634;9.226;2023-09-19T02:54:29;15.60;99.90
13205;DHT22;6667;52.634;9.226;2023-09-19T02:56:56;15.60;99.90
13205;DHT22;6667;52.634;9.226;2023-09-19T02:59:24;15.60;99.90
13205;DHT22;6667;52.634;9.226;2023-09-19T03:01:51;15.60;99.90
13205;DHT22;6667;52.634;9.226;2023-09-19T03:04:19;15.60;99.90
13205;DHT22;6667;52.634;9.226;2023-09-19T03:06:46;15.60;99.90
13205;DHT22;6667;52.634;9.226;2023-09-19T03:09:14;15.60;99.90
13205;DHT22;6667;52.634;9.226;2023-09-19T03:11:42;15.60;99.90
13205;DHT22;6667;52.634;9.226;2023-09-19T03:14:09;15.50;99.90
13205;DHT22;6667;52.634;9.226;2023-09-19T03:16:37;15.60;99.90
13205;DHT22;6667;52.634;9.226;2023-09-19T03:19:04;15.50;99.90
13205;DHT22;6667;52.634;9.226;2023-09-19T03:21:31;15.50;99.90
13205;DHT22;6667;52.634;9.226;2023-09-19T03:23:57;15.60;99.90
13205;DHT22;6667;52.634;9.226;2023-09-19T03:26:24;15.50;99.90
13205;DHT22;6667;52.634;9.226;2023-09-19T03:28:53;15.50;99.90
13205;DHT22;6667;52.634;9.226;2023-09-19T03:31:20;15.50;99.90
13205;DHT22;6667;52.634;9.226;2023-09-19T03:33:46;15.50;99.90
13205;DHT22;6667;52.634;9.226;2023-09-19T03:36:13;15.50;99.90
13205;DHT22;6667;52.634;9.226;2023-09-19T03:38:40;15.50;99.90
13205;DHT22;6667;52.634;9.226;2023-09-19T03:41:06;15.50;99.90
13205;DHT22;6667;52.634;9.226;2023-09-19T03:43:33;15.50;99.90
13205;DHT22;6667;52.634;9.226;2023-09-19T03:46:02;15.50;99.90
13205;DHT22;6667;52.634;9.226;2023-09-19T03:48:30;15.40;99.90
13205;DHT22;6667;52.634;9.226;2023-09-19T03:50:57;15.40;99.90
13205;DHT22;6667;52.634;9.226;2023-09-19T03:53:24;15.40;99.90
13205;DHT22;6667;52.634;9.226;2023-09-19T03:55:51;15.30;99.90
13205;DHT22;6667;52.634;9.226;2023-09-19T03:58:17;15.40;99.90
13205;DHT22;6667;52.634;9.226;2023-09-19T04:00:44;15.30;99.90
13205;DHT22;6667;52.634;9.226;2023-09-19T04:03:12;15.30;99.90
13205;DHT22;6667;52.634;9.226;2023-09-19T04:05:44;15.20;99.90
13205;DHT22;6667;52.634;9.226;2023-09-19T04:08:12;15.30;99.90
13205;DHT22;6667;52.634;9.226;2023-09-19T04:10:38;15.20;99.90
13205;DHT22;6667;52.634;9.226;2023-09-19T04:13:05;15.20;99.90
13205;DHT22;6667;52.634;9.226;2023-09-19T04:15:33;15.10;99.90
13205;DHT22;6667;52.634;9.226;2023-09-19T04:17:59;15.10;99.90
13205;DHT22;6667;52.634;9.226;2023-09-19T04:20:27;15.10;99.90
13205;DHT22;6667;52.634;9.226;2023-09-19T04:22:54;15.10;99.90
13205;DHT22;6667;52.634;9.226;2023-09-19T04:25:21;15.00;99.90
13205;DHT22;6667;52.634;9.226;2023-09-19T04:27:47;15.00;99.90
13205;DHT22;6667;52.634;9.226;2023-09-19T04:30:14;15.00;99.90
13205;DHT22;6667;52.634;9.226;2023-09-19T04:32:41;15.00;99.90
13205;DHT22;6667;52.634;9.226;2023-09-19T04:35:09;15.00;99.90
13205;DHT22;6667;52.634;9.226;2023-09-19T04:37:38;14.90;99.90
13205;DHT22;6667;52.634;9.226;2023-09-19T04:40:07;15.00;99.90
13205;DHT22;6667;52.634;9.226;2023-09-19T04:42:38;15.00;99.90
13205;DHT22;6667;52.634;9.226;2023-09-19T04:45:06;14.90;99.90
13205;DHT22;6667;52.634;9.226;2023-09-19T04:47:34;14.90;99.90
13205;DHT22;6667;52.634;9.226;2023-09-19T04:50:01;14.90;99.90
13205;DHT22;6667;52.634;9.226;2023-09-19T04:52:30;14.90;99.90
13205;DHT22;6667;52.634;9.226;2023-09-19T04:54:58;14.90;99.90
13205;DHT22;6667;52.634;9.226;2023-09-19T04:57:25;14.80;99.90
13205;DHT22;6667;52.634;9.226;2023-09-19T04:59:53;14.80;99.90
13205;DHT22;6667;52.634;9.226;2023-09-19T05:02:20;14.80;99.90
13205;DHT22;6667;52.634;9.226;2023-09-19T05:04:47;14.80;99.90
13205;DHT22;6667;52.634;9.226;2023-09-19T05:07:14;14.70;99.90
13205;DHT22;6667;52.634;9.226;2023-09-19T05:09:41;14.70;99.90
13205;DHT22;6667;52.634;9.226;2023-09-19T05:12:09;14.70;99.90
13205;DHT22;6667;52.634;9.226;2023-09-19T05:14:36;14.70;99.90
13205;DHT22;6667;52.634;9.226;2023-09-19T05:17:03;14.70;99.90
13205;DHT22;6667;52.634;9.226;2023-09-19T05:19:29;14.70;99.90
13205;DHT22;6667;52.634;9.226;2023-09-19T05:21:56;14.70;99.90
13205;DHT22;6667;52.634;9.226;2023-09-19T05:24:23;14.70;99.90
13205;DHT22;6667;52.634;9.226;2023-09-19T05:26:51;14.60;99.90
13205;DHT22;6667;52.634;9.226;2023-09-19T05:29:19;14.60;99.90
13205;DHT22;6667;52.634;9.226;2023-09-19T05:31:46;14.60;99.90
13205;DHT22;6667;52.634;9.226;2023-09-19T05:34:13;14.60;99.90
13205;DHT22;6667;52.634;9.226;2023-09-19T05:36:40;14.60;99.90
13205;DHT22;6667;52.634;9.226;2023-09-19T05:39:07;14.60;99.90
13205;DHT22;6667;52.634;9.226;2023-09-19T05:41:35;14.60;99.90
13205;DHT22;6667;52.634;9.226;2023-09-19T05:44:02;14.60;99.90
13205;DHT22;6667;52.634;9.226;2023-09-19T05:46:30;14.50;99.90
13205;DHT22;6667;52.634;9.226;2023-09-19T05:48:57;14.50;99.90
13205;DHT22;6667;52.634;9.226;2023-09-19T05:51:24;14.50;99.90
13205;DHT22;6667;52.634;9.226;2023-09-19T05:53:54;14.50;99.90
13205;DHT22;6667;52.634;9.226;2023-09-19T05:56:21;14.50;99.90
13205;DHT22;6667;52.634;9.226;2023-09-19T05:58:47;14.60;99.90
13205;DHT22;6667;52.634;9.226;2023-09-19T06:01:15;14.50;99.90
13205;DHT22;6667;52.634;9.226;2023-09-19T06:03:43;14.50;99.90
13205;DHT22;6667;52.634;9.226;2023-09-19T06:06:09;14.50;99.90
13205;DHT22;6667;52.634;9.226;2023-09-19T06:08:36;14.70;99.90
13205;DHT22;6667;52.634;9.226;2023-09-19T06:11:03;14.80;99.90
13205;DHT22;6667;52.634;9.226;2023-09-19T06:13:34;15.00;99.90
13205;DHT22;6667;52.634;9.226;2023-09-19T06:16:01;15.10;99.90
13205;DHT22;6667;52.634;9.226;2023-09-19T06:18:30;15.30;99.90
13205;DHT22;6667;52.634;9.226;2023-09-19T06:21:00;15.40;99.90
13205;DHT22;6667;52.634;9.226;2023-09-19T06:23:30;15.60;99.90
13205;DHT22;6667;52.634;9.226;2023-09-19T06:25:57;15.70;99.90
13205;DHT22;6667;52.634;9.226;2023-09-19T06:28:24;15.90;99.90
13205;DHT22;6667;52.634;9.226;2023-09-19T06:30:53;16.00;99.90
13205;DHT22;6667;52.634;9.226;2023-09-19T06:33:23;16.10;99.90
13205;DHT22;6667;52.634;9.226;2023-09-19T06:35:50;16.20;99.90
13205;DHT22;6667;52.634;9.226;2023-09-19T06:38:19;16.30;99.90
13205;DHT22;6667;52.634;9.226;2023-09-19T06:40:46;16.50;99.90
13205;DHT22;6667;52.634;9.226;2023-09-19T06:43:13;16.50;99.90
13205;DHT22;6667;52.634;9.226;2023-09-19T06:45:40;16.60;99.90
13205;DHT22;6667;52.634;9.226;2023-09-19T06:48:07;16.60;99.90
13205;DHT22;6667;52.634;9.226;2023-09-19T06:50:35;16.30;99.90
13205;DHT22;6667;52.634;9.226;2023-09-19T06:53:02;16.20;99.90
13205;DHT22;6667;52.634;9.226;2023-09-19T06:55:31;16.50;99.90
13205;DHT22;6667;52.634;9.226;2023-09-19T06:57:57;16.70;99.90
13205;DHT22;6667;52.634;9.226;2023-09-19T07:00:24;16.70;99.90
13205;DHT22;6667;52.634;9.226;2023-09-19T07:02:55;16.90;99.90
13205;DHT22;6667;52.634;9.226;2023-09-19T07:05:23;17.20;99.90
13205;DHT22;6667;52.634;9.226;2023-09-19T07:07:49;17.10;99.90
13205;DHT22;6667;52.634;9.226;2023-09-19T07:10:22;17.20;99.90
13205;DHT22;6667;52.634;9.226;2023-09-19T07:12:56;17.40;99.90
13205;DHT22;6667;52.634;9.226;2023-09-19T07:15:24;17.50;99.90
13205;DHT22;6667;52.634;9.226;2023-09-19T07:17:51;17.50;99.90
13205;DHT22;6667;52.634;9.226;2023-09-19T07:20:24;17.70;99.90
13205;DHT22;6667;52.634;9.226;2023-09-19T07:22:54;17.80;99.90
13205;DHT22;6667;52.634;9.226;2023-09-19T07:25:21;18.10;99.90
13205;DHT22;6667;52.634;9.226;2023-09-19T07:27:48;18.20;99.90
13205;DHT22;6667;52.634;9.226;2023-09-19T07:30:18;18.30;99.90
13205;DHT22;6667;52.634;9.226;2023-09-19T07:32:44;18.40;99.90
13205;DHT22;6667;52.634;9.226;2023-09-19T07:35:11;18.50;99.90
13205;DHT22;6667;52.634;9.226;2023-09-19T07:37:38;18.70;99.90
13205;DHT22;6667;52.634;9.226;2023-09-19T07:40:09;18.50;99.90
13205;DHT22;6667;52.634;9.226;2023-09-19T07:42:37;18.70;99.90
13205;DHT22;6667;52.634;9.226;2023-09-19T07:45:07;19.00;99.90
13205;DHT22;6667;52.634;9.226;2023-09-19T07:47:36;18.90;99.90
13205;DHT22;6667;52.634;9.226;2023-09-19T07:50:03;19.30;99.90
13205;DHT22;6667;52.634;9.226;2023-09-19T07:52:30;19.50;99.90
13205;DHT22;6667;52.634;9.226;2023-09-19T07:54:59;19.60;99.90
13205;DHT22;6667;52.634;9.226;2023-09-19T07:57:27;19.40;99.90
13205;DHT22;6667;52.634;9.226;2023-09-19T07:59:54;19.50;99.90
13205;DHT22;6667;52.634;9.226;2023-09-19T08:02:21;19.40;99.90
13205;DHT22;6667;52.634;9.226;2023-09-19T08:04:49;19.30;99.90
13205;DHT22;6667;52.634;9.226;2023-09-19T08:07:17;19.10;99.90
13205;DHT22;6667;52.634;9.226;2023-09-19T08:09:50;19.30;99.90
13205;DHT22;6667;52.634;9.226;2023-09-19T08:12:17;19.30;99.90
13205;DHT22;6667;52.634;9.226;2023-09-19T08:14:49;19.20;99.90
13205;DHT22;6667;52.634;9.226;2023-09-19T08:17:16;19.50;99.90
13205;DHT22;6667;52.634;9.226;2023-09-19T08:22:50;19.10;99.90
13205;DHT22;6667;52.634;9.226;2023-09-19T08:25:18;19.30;99.90
13205;DHT22;6667;52.634;9.226;2023-09-19T08:27:52;19.50;99.90
13205;DHT22;6667;52.634;9.226;2023-09-19T08:30:23;19.50;99.90
13205;DHT22;6667;52.634;9.226;2023-09-19T08:32:50;19.40;99.90
13205;DHT22;6667;52.634;9.226;2023-09-19T08:36:09;19.40;99.90
13205;DHT22;6667;52.634;9.226;2023-09-19T08:38:28;19.60;99.90
13205;DHT22;6667;52.634;9.226;2023-09-19T08:40:57;19.60;99.90
13205;DHT22;6667;52.634;9.226;2023-09-19T08:43:25;19.60;99.90
13205;DHT22;6667;52.634;9.226;2023-09-19T08:45:56;19.60;99.90
13205;DHT22;6667;52.634;9.226;2023-09-19T08:48:29;19.70;99.90
13205;DHT22;6667;52.634;9.226;2023-09-19T08:51:06;19.80;99.90
13205;DHT22;6667;52.634;9.226;2023-09-19T08:53:40;20.20;99.90
13205;DHT22;6667;52.634;9.226;2023-09-19T08:59:34;20.40;99.90
13205;DHT22;6667;52.634;9.226;2023-09-19T09:02:25;20.00;99.90
13205;DHT22;6667;52.634;9.226;2023-09-19T09:05:00;20.40;99.90
13205;DHT22;6667;52.634;9.226;2023-09-19T09:07:28;20.40;99.90
13205;DHT22;6667;52.634;9.226;2023-09-19T09:09:57;20.10;99.90
13205;DHT22;6667;52.634;9.226;2023-09-19T09:12:25;20.00;99.90
13205;DHT22;6667;52.634;9.226;2023-09-19T09:15:02;20.20;99.90
13205;DHT22;6667;52.634;9.226;2023-09-19T09:20:52;20.10;99.90
13205;DHT22;6667;52.634;9.226;2023-09-19T09:26:50;20.50;99.90
13205;DHT22;6667;52.634;9.226;2023-09-19T09:36:37;20.50;99.90
13205;DHT22;6667;52.634;9.226;2023-09-19T09:42:33;20.40;99.90
13205;DHT22;6667;52.634;9.226;2023-09-19T09:45:15;20.50;99.90
13205;DHT22;6667;52.634;9.226;2023-09-19T09:47:46;20.50;99.90
13205;DHT22;6667;52.634;9.226;2023-09-19T09:50:29;20.70;99.90
13205;DHT22;6667;52.634;9.226;2023-09-19T09:53:19;20.30;99.90
13205;DHT22;6667;52.634;9.226;2023-09-19T09:56:01;20.10;99.90
13205;DHT22;6667;52.634;9.226;2023-09-19T09:58:30;20.00;99.90
13205;DHT22;6667;52.634;9.226;2023-09-19T10:00:58;19.90;99.90
13205;DHT22;6667;52.634;9.226;2023-09-19T10:10:39;20.50;99.90
13205;DHT22;6667;52.634;9.226;2023-09-19T10:23:32;20.10;99.90
13205;DHT22;6667;52.634;9.226;2023-09-19T10:40:14;20.60;99.90
13205;DHT22;6667;52.634;9.226;2023-09-19T10:42:59;20.60;99.90
13205;DHT22;6667;52.634;9.226;2023-09-19T10:45:44;20.20;99.90
13205;DHT22;6667;52.634;9.226;2023-09-19T10:48:15;20.10;99.90
13205;DHT22;6667;52.634;9.226;2023-09-19T10:50:48;20.20;99.90
13205;DHT22;6667;52.634;9.226;2023-09-19T10:53:17;20.40;99.90
13205;DHT22;6667;52.634;9.226;2023-09-19T10:55:53;20.50;99.90
13205;DHT22;6667;52.634;9.226;2023-09-19T10:58:29;20.30;99.90
13205;DHT22;6667;52.634;9.226;2023-09-19T11:01:13;20.50;99.90
13205;DHT22;6667;52.634;9.226;2023-09-19T11:03:41;20.40;99.90
13205;DHT22;6667;52.634;9.226;2023-09-19T11:06:12;20.70;99.90
13205;DHT22;6667;52.634;9.226;2023-09-19T11:08:52;20.80;99.90
13205;DHT22;6667;52.634;9.226;2023-09-19T11:12:00;20.70;99.90
13205;DHT22;6667;52.634;9.226;2023-09-19T11:14:41;20.70;99.90
13205;DHT22;6667;52.634;9.226;2023-09-19T11:17:41;20.90;99.90
13205;DHT22;6667;52.634;9.226;2023-09-19T11:20:44;20.70;99.90
13205;DHT22;6667;52.634;9.226;2023-09-19T11:23:18;20.70;99.90
13205;DHT22;6667;52.634;9.226;2023-09-19T11:25:54;20.60;99.90
13205;DHT22;6667;52.634;9.226;2023-09-19T11:28:33;20.50;99.90
13205;DHT22;6667;52.634;9.226;2023-09-19T11:31:41;20.40;99.90
13205;DHT22;6667;52.634;9.226;2023-09-19T11:34:48;20.20;99.90
13205;DHT22;6667;52.634;9.226;2023-09-19T11:51:19;20.10;99.90
13205;DHT22;6667;52.634;9.226;2023-09-19T12:00:39;20.00;99.90
13205;DHT22;6667;52.634;9.226;2023-09-19T12:03:10;20.40;99.90
13205;DHT22;6667;52.634;9.226;2023-09-19T12:05:37;20.30;99.90
13205;DHT22;6667;52.634;9.226;2023-09-19T12:08:05;20.30;99.90
13205;DHT22;6667;52.634;9.226;2023-09-19T12:10:47;20.50;99.90
13205;DHT22;6667;52.634;9.226;2023-09-19T12:13:16;20.60;99.90
13205;DHT22;6667;52.634;9.226;2023-09-19T12:15:43;20.40;99.90
13205;DHT22;6667;52.634;9.226;2023-09-19T12:18:26;20.40;99.90
13205;DHT22;6667;52.634;9.226;2023-09-19T12:20:53;20.70;99.90
13205;DHT22;6667;52.634;9.226;2023-09-19T12:23:22;20.60;99.90
13205;DHT22;6667;52.634;9.226;2023-09-19T12:25:48;20.40;99.90
13205;DHT22;6667;52.634;9.226;2023-09-19T12:28:18;20.30;99.90
13205;DHT22;6667;52.634;9.226;2023-09-19T12:30:47;20.40;99.90
13205;DHT22;6667;52.634;9.226;2023-09-19T12:33:16;20.30;99.90
13205;DHT22;6667;52.634;9.226;2023-09-19T12:35:44;20.50;99.90
13205;DHT22;6667;52.634;9.226;2023-09-19T12:38:11;20.60;99.90
13205;DHT22;6667;52.634;9.226;2023-09-19T12:40:51;20.60;99.90
13205;DHT22;6667;52.634;9.226;2023-09-19T12:43:19;20.60;99.90
13205;DHT22;6667;52.634;9.226;2023-09-19T12:45:46;20.70;99.90
13205;DHT22;6667;52.634;9.226;2023-09-19T12:48:20;20.80;99.90
13205;DHT22;6667;52.634;9.226;2023-09-19T12:51:04;21.00;99.90
13205;DHT22;6667;52.634;9.226;2023-09-19T12:53:33;21.10;99.90
13205;DHT22;6667;52.634;9.226;2023-09-19T12:56:04;21.00;99.90
13205;DHT22;6667;52.634;9.226;2023-09-19T12:58:34;20.80;99.90
13205;DHT22;6667;52.634;9.226;2023-09-19T13:01:14;20.90;99.90
13205;DHT22;6667;52.634;9.226;2023-09-19T13:03:40;21.20;99.90
13205;DHT22;6667;52.634;9.226;2023-09-19T13:06:07;21.10;99.90
13205;DHT22;6667;52.634;9.226;2023-09-19T13:08:37;20.90;99.90
13205;DHT22;6667;52.634;9.226;2023-09-19T13:11:07;21.10;99.90
13205;DHT22;6667;52.634;9.226;2023-09-19T13:13:37;21.20;99.90
13205;DHT22;6667;52.634;9.226;2023-09-19T13:16:04;21.00;99.90
13205;DHT22;6667;52.634;9.226;2023-09-19T13:18:42;20.80;99.90
13205;DHT22;6667;52.634;9.226;2023-09-19T13:21:11;20.90;99.90
13205;DHT22;6667;52.634;9.226;2023-09-19T13:23:41;20.80;99.90
13205;DHT22;6667;52.634;9.226;2023-09-19T13:26:10;20.70;99.90
13205;DHT22;6667;52.634;9.226;2023-09-19T13:28:38;20.90;99.90
13205;DHT22;6667;52.634;9.226;2023-09-19T13:31:05;21.00;99.90
13205;DHT22;6667;52.634;9.226;2023-09-19T13:33:33;21.10;99.90
13205;DHT22;6667;52.634;9.226;2023-09-19T13:36:01;21.30;99.90
13205;DHT22;6667;52.634;9.226;2023-09-19T13:38:27;21.40;99.90
13205;DHT22;6667;52.634;9.226;2023-09-19T13:40:54;21.40;99.90
13205;DHT22;6667;52.634;9.226;2023-09-19T13:43:23;21.50;99.90
13205;DHT22;6667;52.634;9.226;2023-09-19T13:45:50;21.50;99.90
13205;DHT22;6667;52.634;9.226;2023-09-19T13:48:17;21.40;99.90
13205;DHT22;6667;52.634;9.226;2023-09-19T13:50:45;21.40;99.90
13205;DHT22;6667;52.634;9.226;2023-09-19T13:53:12;21.20;99.90
13205;DHT22;6667;52.634;9.226;2023-09-19T13:55:39;21.20;99.90
13205;DHT22;6667;52.634;9.226;2023-09-19T13:58:06;21.20;99.90
13205;DHT22;6667;52.634;9.226;2023-09-19T14:00:37;21.30;99.90
13205;DHT22;6667;52.634;9.226;2023-09-19T14:03:04;21.60;99.90
13205;DHT22;6667;52.634;9.226;2023-09-19T14:05:31;21.50;99.90
13205;DHT22;6667;52.634;9.226;2023-09-19T14:07:58;21.50;99.90
13205;DHT22;6667;52.634;9.226;2023-09-19T14:10:25;21.40;99.90
13205;DHT22;6667;52.634;9.226;2023-09-19T14:12:53;21.30;99.90
13205;DHT22;6667;52.634;9.226;2023-09-19T14:15:19;21.40;99.90
13205;DHT22;6667;52.634;9.226;2023-09-19T14:17:56;21.30;99.90
13205;DHT22;6667;52.634;9.226;2023-09-19T14:20:24;21.10;99.90
13205;DHT22;6667;52.634;9.226;2023-09-19T14:22:51;21.10;99.90
13205;DHT22;6667;52.634;9.226;2023-09-19T14:25:18;21.00;99.90
13205;DHT22;6667;52.634;9.226;2023-09-19T14:27:46;20.90;99.90
13205;DHT22;6667;52.634;9.226;2023-09-19T14:30:13;20.80;99.90
13205;DHT22;6667;52.634;9.226;2023-09-19T14:32:40;20.70;99.90
13205;DHT22;6667;52.634;9.226;2023-09-19T14:35:08;20.90;99.90
13205;DHT22;6667;52.634;9.226;2023-09-19T14:37:36;21.00;99.90
13205;DHT22;6667;52.634;9.226;2023-09-19T14:40:04;21.00;99.90
13205;DHT22;6667;52.634;9.226;2023-09-19T14:42:35;20.90;99.90
13205;DHT22;6667;52.634;9.226;2023-09-19T14:45:04;20.80;99.90
13205;DHT22;6667;52.634;9.226;2023-09-19T14:47:32;20.70;99.90
13205;DHT22;6667;52.634;9.226;2023-09-19T14:49:59;20.60;99.90
13205;DHT22;6667;52.634;9.226;2023-09-19T14:52:27;20.70;99.90
13205;DHT22;6667;52.634;9.226;2023-09-19T14:54:54;20.60;99.90
13205;DHT22;6667;52.634;9.226;2023-09-19T14:57:21;20.60;99.90
13205;DHT22;6667;52.634;9.226;2023-09-19T14:59:50;20.60;99.90
13205;DHT22;6667;52.634;9.226;2023-09-19T15:02:16;20.50;99.90
13205;DHT22;6667;52.634;9.226;2023-09-19T15:04:43;20.50;99.90
13205;DHT22;6667;52.634;9.226;2023-09-19T15:07:10;20.60;99.90
13205;DHT22;6667;52.634;9.226;2023-09-19T15:09:38;20.40;99.90
13205;DHT22;6667;52.634;9.226;2023-09-19T15:12:05;20.30;99.90
13205;DHT22;6667;52.634;9.226;2023-09-19T15:14:32;20.30;99.90
13205;DHT22;6667;52.634;9.226;2023-09-19T15:16:59;20.20;99.90
13205;DHT22;6667;52.634;9.226;2023-09-19T15:19:25;20.20;99.90
13205;DHT22;6667;52.634;9.226;2023-09-19T15:21:53;20.20;99.90
13205;DHT22;6667;52.634;9.226;2023-09-19T15:24:19;20.10;99.90
13205;DHT22;6667;52.634;9.226;2023-09-19T15:26:47;20.10;99.90
13205;DHT22;6667;52.634;9.226;2023-09-19T15:29:15;20.10;99.90
13205;DHT22;6667;52.634;9.226;2023-09-19T15:31:42;20.10;99.90
13205;DHT22;6667;52.634;9.226;2023-09-19T15:34:09;20.10;99.90
13205;DHT22;6667;52.634;9.226;2023-09-19T15:36:39;20.10;99.90
13205;DHT22;6667;52.634;9.226;2023-09-19T15:39:07;20.00;99.90
13205;DHT22;6667;52.634;9.226;2023-09-19T15:41:37;20.00;99.90
13205;DHT22;6667;52.634;9.226;2023-09-19T15:44:11;20.00;99.90
13205;DHT22;6667;52.634;9.226;2023-09-19T15:46:38;19.90;99.90
13205;DHT22;6667;52.634;9.226;2023-09-19T15:49:04;19.90;99.90
13205;DHT22;6667;52.634;9.226;2023-09-19T15:51:33;19.90;99.90
13205;DHT22;6667;52.634;9.226;2023-09-19T15:54:01;19.90;99.90
13205;DHT22;6667;52.634;9.226;2023-09-19T15:56:33;19.90;99.90
13205;DHT22;6667;52.634;9.226;2023-09-19T15:59:01;19.80;99.90
13205;DHT22;6667;52.634;9.226;2023-09-19T16:01:29;19.80;99.90
13205;DHT22;6667;52.634;9.226;2023-09-19T16:03:55;19.80;99.90
13205;DHT22;6667;52.634;9.226;2023-09-19T16:06:24;19.80;99.90
13205;DHT22;6667;52.634;9.226;2023-09-19T16:08:52;19.80;99.90
13205;DHT22;6667;52.634;9.226;2023-09-19T16:11:20;19.70;99.90
13205;DHT22;6667;52.634;9.226;2023-09-19T16:13:49;19.70;99.90
13205;DHT22;6667;52.634;9.226;2023-09-19T16:16:16;19.70;99.90
13205;DHT22;6667;52.634;9.226;2023-09-19T16:18:46;19.70;99.90
13205;DHT22;6667;52.634;9.226;2023-09-19T16:21:14;19.80;99.90
13205;DHT22;6667;52.634;9.226;2023-09-19T16:23:45;19.80;99.90
13205;DHT22;6667;52.634;9.226;2023-09-19T16:26:12;19.70;99.90
13205;DHT22;6667;52.634;9.226;2023-09-19T16:28:40;19.70;99.90
13205;DHT22;6667;52.634;9.226;2023-09-19T16:31:08;19.70;99.90
13205;DHT22;6667;52.634;9.226;2023-09-19T16:33:36;19.70;99.90
13205;DHT22;6667;52.634;9.226;2023-09-19T16:36:07;19.60;99.90
13205;DHT22;6667;52.634;9.226;2023-09-19T16:38:34;19.60;99.90
13205;DHT22;6667;52.634;9.226;2023-09-19T16:41:00;19.60;99.90
13205;DHT22;6667;52.634;9.226;2023-09-19T16:43:27;19.60;99.90
13205;DHT22;6667;52.634;9.226;2023-09-19T16:45:54;19.50;99.90
13205;DHT22;6667;52.634;9.226;2023-09-19T16:48:21;19.50;99.90
13205;DHT22;6667;52.634;9.226;2023-09-19T16:50:49;19.50;99.90
13205;DHT22;6667;52.634;9.226;2023-09-19T16:53:17;19.40;99.90
13205;DHT22;6667;52.634;9.226;2023-09-19T16:55:45;19.40;99.90
13205;DHT22;6667;52.634;9.226;2023-09-19T16:58:11;19.40;99.90
13205;DHT22;6667;52.634;9.226;2023-09-19T17:00:38;19.30;99.90
13205;DHT22;6667;52.634;9.226;2023-09-19T17:03:05;19.20;99.90
13205;DHT22;6667;52.634;9.226;2023-09-19T17:05:33;19.20;99.90
13205;DHT22;6667;52.634;9.226;2023-09-19T17:08:00;19.20;99.90
13205;DHT22;6667;52.634;9.226;2023-09-19T17:10:31;19.20;99.90
13205;DHT22;6667;52.634;9.226;2023-09-19T17:12:59;19.10;99.90
13205;DHT22;6667;52.634;9.226;2023-09-19T17:15:26;19.10;99.90
13205;DHT22;6667;52.634;9.226;2023-09-19T17:17:53;19.10;99.90